LSZR Airport Information

Runway Information
Runway 10 Length 0 ft width 0 ft
Elevation 1306 ft Threshold 0 ft Heading 0
Runway 28 Length 0 ft Width 0 ft
Elevation 1306 ft Threshold 0 ft Heading 0
Runway 10L Length 1969 ft width 75 ft
Elevation 0 ft Threshold 0 ft Heading 97
Runway 28R Length 1969 ft Width 75 ft
Elevation 0 ft Threshold 0 ft Heading 277
Runway 10R Length 4922 ft width 98 ft
Elevation 1306 ft Threshold 328 ft Heading 99
Runway 28L Length 4922 ft Width 98 ft
Elevation 1306 ft Threshold 246 ft Heading 279
Airport Frequencies
Type ACC Name ZURICH RAD Frequency 133.9 MHZ
Type ARR Name ZURICH ARR Frequency 119.925 MHZ
Type ATIS Name ATIS Frequency 123.775 MHZ
Type FIS Name Zurich Inf Frequency 124.7 MHZ
Type GND Name GND Frequency 121.8 MHZ
Type TWR Name TWR Frequency 118.65 MHZ
Airport Navaids
Airport Weather Information & NOTAM
ADDS - METARS form results

(0856 UTC 15 December 2018)
Data provider http://aviationweather.gov/metar/data/
 
METAR text: LSZR 150850Z 12005KT 9999 BKN026 M02/M07 Q1023 NOSIG RMK C
Conditions at: LSZR (RHEINECK/ALTENRH, CH) observed 0850 UTC 15 December 2018
Temperature: -2.0°C (28°F)
Dewpoint: -7.0°C (19°F) [RH = 69%]
Pressure (altimeter): 30.21 inches Hg (1023.0 mb)
Winds: from the ESE (120 degrees) at 6 MPH (5 knots; 2.6 m/s)
Visibility: 6 or more miles (10+ km)
Ceiling: 2600 feet AGL
Clouds: broken clouds at 2600 feet AGL
Weather: no significant weather observed at this time

METAR text: LSZR 150820Z 12005KT 9999 BKN026 M02/M07 Q1023 NOSIG RMK C
Conditions at: LSZR (RHEINECK/ALTENRH, CH) observed 0820 UTC 15 December 2018
Temperature: -2.0°C (28°F)
Dewpoint: -7.0°C (19°F) [RH = 69%]
Pressure (altimeter): 30.21 inches Hg (1023.0 mb)
Winds: from the ESE (120 degrees) at 6 MPH (5 knots; 2.6 m/s)
Visibility: 6 or more miles (10+ km)
Ceiling: 2600 feet AGL
Clouds: broken clouds at 2600 feet AGL
Weather: no significant weather observed at this time

Forecast for: LSZR (RHEINECK/ALTENRH, CH)
Text: TAF LSZR 150825Z 1509/1518 VRB03KT 9999 OVC025
Forecast period: 0900 to 1800 UTC 15 December 2018
Forecast type: FROM: standard forecast or significant change
Winds: variable direction winds at 3 MPH (3 knots; 1.5 m/s)
Visibility: 6 or more miles 10+ km)
Ceiling: 2500 feet AGL
Clouds: overcast cloud deck at 2500 feet AGL
Weather: no significant weather forecast for this period
Text: PROB40 1512/1518 CAVOK
Forecast period: 1200 to 1800 UTC 15 December 2018
Forecast type: PROBABLE: 40 percent likelihood of the following during this time
Visibility: 6 or more miles 10+ km)
Ceiling: unknown
Clouds: missing
Weather: NSW  (no significant weather)